METAR ET TAF INFORMATION
METAR FOR ENFL
ADDS - METARS form results

(1441 UTC 15 September 2019)
Data provider http://aviationweather.gov/metar/data/
 
METAR text: ENFL 151420Z AUTO 28034G46KT 2100NDV -SHRA VV018 11/09 Q0998
Conditions at: ENFL (FLORO , NO) observed 1420 UTC 15 September 2019
Temperature: 11.0°C (52°F)
Dewpoint: 9.0°C (48°F) [RH = 87%]
Pressure (altimeter): 29.47 inches Hg (998.0 mb)
Winds: from the W (280 degrees) at 39 MPH (34 knots; 17.5 m/s)
gusting to 53 MPH (46 knots; 23.7 m/s)
Visibility: missing
Ceiling: indefinite ceiling with vertical visibility of 1800 feet AGL
Clouds: obscured sky
Weather: -SHRA  (light rain showers)

METAR text: ENFL 151350Z AUTO 28030G42KT 9999NDV -SHRA SCT018/// BKN026/// OVC072/// 11/09 Q0998
Conditions at: ENFL (FLORO , NO) observed 1350 UTC 15 September 2019
Temperature: 11.0°C (52°F)
Dewpoint: 9.0°C (48°F) [RH = 87%]
Pressure (altimeter): 29.47 inches Hg (998.0 mb)
Winds: from the W (280 degrees) at 34 MPH (30 knots; 15.4 m/s)
gusting to 48 MPH (42 knots; 21.6 m/s)
Visibility: missing
Ceiling: 2600 feet AGL
Clouds: scattered clouds at 1800 feet AGL
broken clouds at 2600 feet AGL
overcast cloud deck at 7200 feet AGL
Weather: -SHRA  (light rain showers)

 AÉROPORT DE AÉROPORT

 INFORMATIONS DE PISTE
Piste 07 Longueur de la piste 3934 ft Largeur de la piste 98 ft
Élévation de la piste 37 ft Seuil de la piste déplacés 0 ft Runway heading 71
Piste 25 Longueur de la piste 3934 ft Largeur de la piste 98 ft
Élévation de la piste 22 ft Seuil de la piste déplacés 0 ft Runway heading 251

 AÉROPORT FRÉQUENCES
Type AFIS Nom AFIS Féquence 119.2 MHZ

 SIDA DE NAVIGATION
Type VOR-DME Nom Floro Féquence 112300 KHZ
Type NDB Nom Reksten Féquence 379 KHZ



Powered by Virtual Airlines Manager [v2.6.2]